sensor_id;sensor_type;location;lat;lon;timestamp;pressure;altitude;pressure_sealevel;temperature;humidity
48862;BME280;34681;49.188;-0.374;2023-06-22T00:00:54;101555.94;;;23.61;nan
48862;BME280;34681;49.188;-0.374;2023-06-22T00:03:21;101549.88;;;23.58;nan
48862;BME280;34681;49.188;-0.374;2023-06-22T00:05:47;101547.31;;;23.56;nan
48862;BME280;34681;49.188;-0.374;2023-06-22T00:08:14;101550.09;;;23.56;nan
48862;BME280;34681;49.188;-0.374;2023-06-22T00:10:39;101559.34;;;23.57;nan
48862;BME280;34681;49.188;-0.374;2023-06-22T00:13:06;101561.31;;;23.63;nan
48862;BME280;34681;49.188;-0.374;2023-06-22T00:15:32;101550.94;;;23.57;nan
48862;BME280;34681;49.188;-0.374;2023-06-22T00:17:58;101558.47;;;23.56;nan
48862;BME280;34681;49.188;-0.374;2023-06-22T00:20:24;101565.34;;;23.53;nan
48862;BME280;34681;49.188;-0.374;2023-06-22T00:22:57;101551.81;;;23.57;nan
48862;BME280;34681;49.188;-0.374;2023-06-22T00:25:23;101547.31;;;23.56;nan
48862;BME280;34681;49.188;-0.374;2023-06-22T00:27:48;101548.59;;;23.47;nan
48862;BME280;34681;49.188;-0.374;2023-06-22T00:30:15;101545.16;;;23.45;nan
48862;BME280;34681;49.188;-0.374;2023-06-22T00:32:41;101542.78;;;23.35;nan
48862;BME280;34681;49.188;-0.374;2023-06-22T00:35:07;101550.06;;;23.36;nan
48862;BME280;34681;49.188;-0.374;2023-06-22T00:37:32;101550.28;;;23.35;nan
48862;BME280;34681;49.188;-0.374;2023-06-22T00:39:58;101548.13;;;23.30;nan
48862;BME280;34681;49.188;-0.374;2023-06-22T00:42:24;101547.25;;;23.30;nan
48862;BME280;34681;49.188;-0.374;2023-06-22T00:44:49;101544.44;;;23.23;nan
48862;BME280;34681;49.188;-0.374;2023-06-22T00:47:16;101545.97;;;23.32;nan
48862;BME280;34681;49.188;-0.374;2023-06-22T00:49:43;101549.16;;;23.16;nan
48862;BME280;34681;49.188;-0.374;2023-06-22T00:52:08;101558.81;;;23.13;nan
48862;BME280;34681;49.188;-0.374;2023-06-22T00:54:40;101565.91;;;23.22;nan
48862;BME280;34681;49.188;-0.374;2023-06-22T00:57:11;101556.72;;;23.29;nan
48862;BME280;34681;49.188;-0.374;2023-06-22T00:59:37;101554.72;;;23.03;nan
48862;BME280;34681;49.188;-0.374;2023-06-22T01:02:04;101546.34;;;23.16;nan
48862;BME280;34681;49.188;-0.374;2023-06-22T01:04:38;101551.34;;;23.27;nan
48862;BME280;34681;49.188;-0.374;2023-06-22T01:07:17;101548.75;;;23.32;nan
48862;BME280;34681;49.188;-0.374;2023-06-22T01:12:39;101544.44;;;23.16;nan
48862;BME280;34681;49.188;-0.374;2023-06-22T01:15:32;101549.34;;;23.01;nan
48862;BME280;34681;49.188;-0.374;2023-06-22T01:17:56;101546.34;;;23.03;nan
48862;BME280;34681;49.188;-0.374;2023-06-22T01:20:25;101540.09;;;22.94;nan
48862;BME280;34681;49.188;-0.374;2023-06-22T01:23:10;101534.19;;;22.82;nan
48862;BME280;34681;49.188;-0.374;2023-06-22T01:25:59;101531.56;;;22.74;nan
48862;BME280;34681;49.188;-0.374;2023-06-22T01:28:46;101536.69;;;22.64;nan
48862;BME280;34681;49.188;-0.374;2023-06-22T01:31:16;101533.72;;;22.72;nan
48862;BME280;34681;49.188;-0.374;2023-06-22T01:33:44;101533.19;;;22.90;nan
48862;BME280;34681;49.188;-0.374;2023-06-22T01:36:10;101526.34;;;22.92;nan
48862;BME280;34681;49.188;-0.374;2023-06-22T01:38:37;101533.50;;;22.74;nan
48862;BME280;34681;49.188;-0.374;2023-06-22T01:41:03;101530.53;;;22.82;nan
48862;BME280;34681;49.188;-0.374;2023-06-22T01:43:30;101529.66;;;22.75;nan
48862;BME280;34681;49.188;-0.374;2023-06-22T01:45:56;101524.84;;;22.55;nan
48862;BME280;34681;49.188;-0.374;2023-06-22T01:48:23;101532.59;;;21.97;nan
48862;BME280;34681;49.188;-0.374;2023-06-22T01:50:49;101530.13;;;22.09;nan
48862;BME280;34681;49.188;-0.374;2023-06-22T01:53:14;101540.91;;;21.91;nan
48862;BME280;34681;49.188;-0.374;2023-06-22T01:55:40;101533.47;;;21.98;nan
48862;BME280;34681;49.188;-0.374;2023-06-22T01:58:05;101529.63;;;22.27;nan
48862;BME280;34681;49.188;-0.374;2023-06-22T02:00:37;101526.06;;;22.39;nan
48862;BME280;34681;49.188;-0.374;2023-06-22T02:03:14;101523.03;;;22.34;nan
48862;BME280;34681;49.188;-0.374;2023-06-22T02:05:50;101520.72;;;22.45;nan
48862;BME280;34681;49.188;-0.374;2023-06-22T02:08:20;101511.16;;;22.26;nan
48862;BME280;34681;49.188;-0.374;2023-06-22T02:10:47;101509.19;;;21.92;nan
48862;BME280;34681;49.188;-0.374;2023-06-22T02:13:20;101505.75;;;21.90;64.92
48862;BME280;34681;49.188;-0.374;2023-06-22T02:15:46;101506.97;;;21.52;66.46
48862;BME280;34681;49.188;-0.374;2023-06-22T02:18:12;101502.34;;;21.66;66.28
48862;BME280;34681;49.188;-0.374;2023-06-22T02:20:39;101496.78;;;21.23;67.55
48862;BME280;34681;49.188;-0.374;2023-06-22T02:23:05;101496.72;;;21.17;68.10
48862;BME280;34681;49.188;-0.374;2023-06-22T02:25:32;101496.63;;;20.89;69.27
48862;BME280;34681;49.188;-0.374;2023-06-22T02:27:57;101487.63;;;21.08;68.85
48862;BME280;34681;49.188;-0.374;2023-06-22T02:30:23;101483.63;;;20.74;69.83
48862;BME280;34681;49.188;-0.374;2023-06-22T02:32:48;101478.00;;;20.38;71.04
48862;BME280;34681;49.188;-0.374;2023-06-22T02:35:13;101470.06;;;20.20;72.04
48862;BME280;34681;49.188;-0.374;2023-06-22T02:37:39;101460.28;;;20.25;72.23
48862;BME280;34681;49.188;-0.374;2023-06-22T02:40:08;101458.66;;;20.30;72.14
48862;BME280;34681;49.188;-0.374;2023-06-22T02:42:37;101465.94;;;20.16;72.80
48862;BME280;34681;49.188;-0.374;2023-06-22T02:45:03;101480.97;;;20.07;73.02
48862;BME280;34681;49.188;-0.374;2023-06-22T02:47:28;101478.66;;;20.26;72.63
48862;BME280;34681;49.188;-0.374;2023-06-22T02:49:54;101488.34;;;20.00;73.24
48862;BME280;34681;49.188;-0.374;2023-06-22T02:52:19;101487.13;;;20.03;73.43
48862;BME280;34681;49.188;-0.374;2023-06-22T02:54:45;101492.97;;;20.23;72.49
48862;BME280;34681;49.188;-0.374;2023-06-22T02:57:11;101484.72;;;20.14;72.74
48862;BME280;34681;49.188;-0.374;2023-06-22T02:59:41;101485.84;;;20.35;72.23
48862;BME280;34681;49.188;-0.374;2023-06-22T03:02:07;101489.97;;;20.24;72.27
48862;BME280;34681;49.188;-0.374;2023-06-22T03:04:34;101486.81;;;20.57;71.32
48862;BME280;34681;49.188;-0.374;2023-06-22T03:06:59;101482.88;;;20.66;70.89
48862;BME280;34681;49.188;-0.374;2023-06-22T03:09:27;101494.59;;;20.61;70.45
48862;BME280;34681;49.188;-0.374;2023-06-22T03:11:56;101502.09;;;20.46;70.97
48862;BME280;34681;49.188;-0.374;2023-06-22T03:14:21;101499.47;;;20.30;71.43
48862;BME280;34681;49.188;-0.374;2023-06-22T03:16:47;101498.72;;;20.21;71.91
48862;BME280;34681;49.188;-0.374;2023-06-22T03:19:12;101499.56;;;20.22;71.79
48862;BME280;34681;49.188;-0.374;2023-06-22T03:21:39;101505.53;;;20.48;71.10
48862;BME280;34681;49.188;-0.374;2023-06-22T03:24:05;101509.66;;;20.52;70.42
48862;BME280;34681;49.188;-0.374;2023-06-22T03:26:30;101505.31;;;20.50;70.49
48862;BME280;34681;49.188;-0.374;2023-06-22T03:28:56;101504.38;;;20.93;68.82
48862;BME280;34681;49.188;-0.374;2023-06-22T03:31:21;101503.03;;;20.53;69.43
48862;BME280;34681;49.188;-0.374;2023-06-22T03:33:50;101507.16;;;20.28;70.09
48862;BME280;34681;49.188;-0.374;2023-06-22T03:36:16;101499.09;;;20.33;69.82
48862;BME280;34681;49.188;-0.374;2023-06-22T03:38:46;101502.94;;;20.46;69.44
48862;BME280;34681;49.188;-0.374;2023-06-22T03:41:12;101496.41;;;20.39;69.29
48862;BME280;34681;49.188;-0.374;2023-06-22T03:43:37;101506.38;;;20.19;69.38
48862;BME280;34681;49.188;-0.374;2023-06-22T03:46:02;101496.19;;;20.41;69.32
48862;BME280;34681;49.188;-0.374;2023-06-22T03:48:28;101495.53;;;20.39;68.48
48862;BME280;34681;49.188;-0.374;2023-06-22T03:50:53;101492.97;;;20.52;68.35
48862;BME280;34681;49.188;-0.374;2023-06-22T03:53:18;101488.34;;;20.59;67.56
48862;BME280;34681;49.188;-0.374;2023-06-22T03:55:51;101488.38;;;20.44;67.58
48862;BME280;34681;49.188;-0.374;2023-06-22T03:58:18;101481.84;;;20.08;68.93
48862;BME280;34681;49.188;-0.374;2023-06-22T04:00:50;101488.00;;;20.03;68.99
48862;BME280;34681;49.188;-0.374;2023-06-22T04:03:16;101487.69;;;19.98;68.49
48862;BME280;34681;49.188;-0.374;2023-06-22T04:05:44;101490.94;;;20.16;67.47
48862;BME280;34681;49.188;-0.374;2023-06-22T04:08:10;101484.91;;;19.98;67.84
48862;BME280;34681;49.188;-0.374;2023-06-22T04:10:35;101482.91;;;20.07;67.31
48862;BME280;34681;49.188;-0.374;2023-06-22T04:13:01;101484.72;;;20.14;67.52
48862;BME280;34681;49.188;-0.374;2023-06-22T04:15:26;101482.31;;;19.97;67.64
48862;BME280;34681;49.188;-0.374;2023-06-22T04:17:51;101484.78;;;19.77;68.48
48862;BME280;34681;49.188;-0.374;2023-06-22T04:20:17;101486.69;;;19.76;68.42
48862;BME280;34681;49.188;-0.374;2023-06-22T04:22:42;101493.97;;;19.77;68.77
48862;BME280;34681;49.188;-0.374;2023-06-22T04:25:08;101492.34;;;19.83;68.38
48862;BME280;34681;49.188;-0.374;2023-06-22T04:27:33;101501.78;;;19.97;68.38
48862;BME280;34681;49.188;-0.374;2023-06-22T04:30:06;101507.81;;;20.15;67.48
48862;BME280;34681;49.188;-0.374;2023-06-22T04:32:32;101506.56;;;20.03;67.90
48862;BME280;34681;49.188;-0.374;2023-06-22T04:34:57;101510.38;;;20.02;67.98
48862;BME280;34681;49.188;-0.374;2023-06-22T04:37:23;101517.28;;;19.91;68.41
48862;BME280;34681;49.188;-0.374;2023-06-22T04:39:49;101523.06;;;20.19;67.97
48862;BME280;34681;49.188;-0.374;2023-06-22T04:42:15;101519.13;;;20.28;67.59
48862;BME280;34681;49.188;-0.374;2023-06-22T04:44:40;101520.75;;;20.23;67.60
48862;BME280;34681;49.188;-0.374;2023-06-22T04:47:07;101524.88;;;20.12;67.97
48862;BME280;34681;49.188;-0.374;2023-06-22T04:49:36;101530.03;;;20.15;67.95
48862;BME280;34681;49.188;-0.374;2023-06-22T04:52:06;101526.88;;;20.03;68.55
48862;BME280;34681;49.188;-0.374;2023-06-22T04:54:32;101518.91;;;20.00;68.96
48862;BME280;34681;49.188;-0.374;2023-06-22T04:57:01;101529.53;;;19.97;68.88
48862;BME280;34681;49.188;-0.374;2023-06-22T04:59:28;101528.50;;;19.98;69.47
48862;BME280;34681;49.188;-0.374;2023-06-22T05:01:59;101526.66;;;19.90;69.06
48862;BME280;34681;49.188;-0.374;2023-06-22T05:04:25;101532.94;;;19.84;69.81
48862;BME280;34681;49.188;-0.374;2023-06-22T05:06:52;101540.56;;;19.67;70.41
48862;BME280;34681;49.188;-0.374;2023-06-22T05:09:18;101534.47;;;19.72;70.12
48862;BME280;34681;49.188;-0.374;2023-06-22T05:11:44;101535.06;;;19.82;70.17
48862;BME280;34681;49.188;-0.374;2023-06-22T05:14:10;101545.59;;;19.72;70.07
48862;BME280;34681;49.188;-0.374;2023-06-22T05:16:36;101544.19;;;19.90;69.75
48862;BME280;34681;49.188;-0.374;2023-06-22T05:19:02;101545.91;;;19.91;69.56
48862;BME280;34681;49.188;-0.374;2023-06-22T05:21:30;101547.97;;;19.75;70.38
48862;BME280;34681;49.188;-0.374;2023-06-22T05:23:56;101544.19;;;19.90;69.37
48862;BME280;34681;49.188;-0.374;2023-06-22T05:26:28;101543.66;;;19.72;69.43
48862;BME280;34681;49.188;-0.374;2023-06-22T05:28:54;101541.00;;;19.56;70.45
48862;BME280;34681;49.188;-0.374;2023-06-22T05:31:20;101533.34;;;19.81;69.43
48862;BME280;34681;49.188;-0.374;2023-06-22T05:33:46;101533.16;;;19.82;68.79
48862;BME280;34681;49.188;-0.374;2023-06-22T05:36:13;101526.94;;;19.80;68.93
48862;BME280;34681;49.188;-0.374;2023-06-22T05:38:39;101525.41;;;19.92;68.10
48862;BME280;34681;49.188;-0.374;2023-06-22T05:41:04;101530.44;;;20.12;67.15
48862;BME280;34681;49.188;-0.374;2023-06-22T05:43:30;101512.00;;;20.26;66.13
48862;BME280;34681;49.188;-0.374;2023-06-22T05:45:55;101520.72;;;20.08;66.57
48862;BME280;34681;49.188;-0.374;2023-06-22T05:48:21;101527.75;;;20.04;66.37
48862;BME280;34681;49.188;-0.374;2023-06-22T05:50:46;101528.47;;;19.83;66.81
48862;BME280;34681;49.188;-0.374;2023-06-22T05:53:12;101527.03;;;19.87;66.66
48862;BME280;34681;49.188;-0.374;2023-06-22T05:55:37;101521.31;;;20.03;66.30
48862;BME280;34681;49.188;-0.374;2023-06-22T05:58:02;101516.44;;;20.05;66.34
48862;BME280;34681;49.188;-0.374;2023-06-22T06:00:31;101533.78;;;20.22;65.80
48862;BME280;34681;49.188;-0.374;2023-06-22T06:02:56;101530.41;;;20.27;65.39
48862;BME280;34681;49.188;-0.374;2023-06-22T06:05:22;101526.50;;;20.36;64.62
48862;BME280;34681;49.188;-0.374;2023-06-22T06:07:49;101529.75;;;20.25;64.88
48862;BME280;34681;49.188;-0.374;2023-06-22T06:10:14;101517.41;;;20.57;64.64
48862;BME280;34681;49.188;-0.374;2023-06-22T06:12:39;101510.66;;;20.81;63.80
48862;BME280;34681;49.188;-0.374;2023-06-22T06:15:05;101517.22;;;21.30;62.22
48862;BME280;34681;49.188;-0.374;2023-06-22T06:17:30;101511.72;;;21.37;61.70
48862;BME280;34681;49.188;-0.374;2023-06-22T06:19:56;101522.13;;;21.28;61.51
48862;BME280;34681;49.188;-0.374;2023-06-22T06:22:21;101512.75;;;21.15;62.47
48862;BME280;34681;49.188;-0.374;2023-06-22T06:24:48;101514.00;;;21.27;62.08
48862;BME280;34681;49.188;-0.374;2023-06-22T06:27:14;101512.63;;;21.23;62.17
48862;BME280;34681;49.188;-0.374;2023-06-22T06:29:39;101517.06;;;20.81;63.42
48862;BME280;34681;49.188;-0.374;2023-06-22T06:32:05;101516.22;;;20.81;63.62
48862;BME280;34681;49.188;-0.374;2023-06-22T06:34:30;101511.81;;;20.71;63.77
48862;BME280;34681;49.188;-0.374;2023-06-22T06:36:56;101526.16;;;20.90;63.27
48862;BME280;34681;49.188;-0.374;2023-06-22T06:39:21;101524.25;;;20.90;63.65
48862;BME280;34681;49.188;-0.374;2023-06-22T06:41:46;101535.84;;;20.94;63.47
48862;BME280;34681;49.188;-0.374;2023-06-22T06:44:12;101537.63;;;21.01;63.39
48862;BME280;34681;49.188;-0.374;2023-06-22T06:46:37;101534.94;;;22.22;60.60
48862;BME280;34681;49.188;-0.374;2023-06-22T06:49:03;101546.78;;;22.02;60.52
48862;BME280;34681;49.188;-0.374;2023-06-22T06:51:29;101529.41;;;21.51;62.23
48862;BME280;34681;49.188;-0.374;2023-06-22T06:53:54;101535.78;;;21.45;62.59
48862;BME280;34681;49.188;-0.374;2023-06-22T06:56:20;101534.81;;;21.52;62.73
48862;BME280;34681;49.188;-0.374;2023-06-22T06:58:45;101539.84;;;21.92;61.54
48862;BME280;34681;49.188;-0.374;2023-06-22T07:01:12;101544.88;;;22.03;61.63
48862;BME280;34681;49.188;-0.374;2023-06-22T07:03:38;101551.31;;;22.03;61.58
48862;BME280;34681;49.188;-0.374;2023-06-22T07:06:03;101546.91;;;22.15;61.57
48862;BME280;34681;49.188;-0.374;2023-06-22T07:08:29;101546.34;;;23.16;59.22
48862;BME280;34681;49.188;-0.374;2023-06-22T07:10:54;101553.78;;;23.90;56.46
48862;BME280;34681;49.188;-0.374;2023-06-22T07:13:20;101552.25;;;24.40;55.68
48862;BME280;34681;49.188;-0.374;2023-06-22T07:15:45;101555.50;;;25.02;53.60
48862;BME280;34681;49.188;-0.374;2023-06-22T07:18:11;101556.03;;;24.72;54.18
48862;BME280;34681;49.188;-0.374;2023-06-22T07:20:36;101560.69;;;25.05;53.39
48862;BME280;34681;49.188;-0.374;2023-06-22T07:23:02;101568.72;;;26.82;49.84
48862;BME280;34681;49.188;-0.374;2023-06-22T07:25:28;101555.09;;;26.49;49.66
48862;BME280;34681;49.188;-0.374;2023-06-22T07:27:59;101563.31;;;26.81;48.91
48862;BME280;34681;49.188;-0.374;2023-06-22T07:30:25;101568.72;;;27.19;47.68
48862;BME280;34681;49.188;-0.374;2023-06-22T07:32:50;101578.47;;;29.17;43.40
48862;BME280;34681;49.188;-0.374;2023-06-22T07:35:16;101578.34;;;30.14;41.97
48862;BME280;34681;49.188;-0.374;2023-06-22T07:37:42;101567.59;;;31.54;40.08
48862;BME280;34681;49.188;-0.374;2023-06-22T07:40:08;101574.91;;;32.41;36.90
48862;BME280;34681;49.188;-0.374;2023-06-22T07:42:33;101576.75;;;31.40;38.93
48862;BME280;34681;49.188;-0.374;2023-06-22T07:44:59;101596.56;;;32.63;36.85
48862;BME280;34681;49.188;-0.374;2023-06-22T07:47:24;101584.03;;;32.96;36.00
48862;BME280;34681;49.188;-0.374;2023-06-22T07:49:54;101586.63;;;34.11;34.50
48862;BME280;34681;49.188;-0.374;2023-06-22T07:52:20;101590.41;;;36.69;31.48
48862;BME280;34681;49.188;-0.374;2023-06-22T07:54:46;101587.34;;;36.36;30.59
48862;BME280;34681;49.188;-0.374;2023-06-22T07:57:12;101581.81;;;35.22;32.25
48862;BME280;34681;49.188;-0.374;2023-06-22T07:59:37;101586.81;;;36.29;30.84
48862;BME280;34681;49.188;-0.374;2023-06-22T08:02:03;101598.38;;;37.44;29.04
48862;BME280;34681;49.188;-0.374;2023-06-22T08:04:29;101589.13;;;38.41;27.58
48862;BME280;34681;49.188;-0.374;2023-06-22T08:06:56;101593.69;;;40.47;25.60
48862;BME280;34681;49.188;-0.374;2023-06-22T08:09:21;101601.78;;;40.76;24.41
48862;BME280;34681;49.188;-0.374;2023-06-22T08:11:47;101582.03;;;40.21;25.68
48862;BME280;34681;49.188;-0.374;2023-06-22T08:14:13;101573.84;;;39.55;26.01
48862;BME280;34681;49.188;-0.374;2023-06-22T08:16:38;101582.44;;;39.19;26.27
48862;BME280;34681;49.188;-0.374;2023-06-22T08:19:03;101576.97;;;38.49;27.46
48862;BME280;34681;49.188;-0.374;2023-06-22T08:21:29;101585.72;;;38.39;27.75
48862;BME280;34681;49.188;-0.374;2023-06-22T08:23:54;101589.63;;;39.30;27.13
48862;BME280;34681;49.188;-0.374;2023-06-22T08:26:19;101589.09;;;40.14;24.67
48862;BME280;34681;49.188;-0.374;2023-06-22T08:28:45;101586.31;;;39.37;26.02
48862;BME280;34681;49.188;-0.374;2023-06-22T08:31:10;101594.19;;;38.90;26.87
48862;BME280;34681;49.188;-0.374;2023-06-22T08:33:37;101597.22;;;38.01;27.04
48862;BME280;34681;49.188;-0.374;2023-06-22T08:36:03;101586.69;;;36.97;28.74
48862;BME280;34681;49.188;-0.374;2023-06-22T08:38:31;101601.19;;;37.86;27.65
48862;BME280;34681;49.188;-0.374;2023-06-22T08:40:56;101593.16;;;37.27;29.12
48862;BME280;34681;49.188;-0.374;2023-06-22T08:43:22;101597.53;;;37.81;28.11
48862;BME280;34681;49.188;-0.374;2023-06-22T08:45:47;101592.31;;;38.20;27.66
48862;BME280;34681;49.188;-0.374;2023-06-22T08:48:12;101600.16;;;38.61;27.15
48862;BME280;34681;49.188;-0.374;2023-06-22T08:50:38;101601.38;;;39.29;26.63
48862;BME280;34681;49.188;-0.374;2023-06-22T08:53:05;101601.28;;;38.14;27.42
48862;BME280;34681;49.188;-0.374;2023-06-22T08:55:30;101610.91;;;39.11;25.89
48862;BME280;34681;49.188;-0.374;2023-06-22T08:57:56;101604.72;;;37.41;27.77
48862;BME280;34681;49.188;-0.374;2023-06-22T09:00:21;101606.75;;;33.89;32.62
48862;BME280;34681;49.188;-0.374;2023-06-22T09:02:47;101612.44;;;34.20;32.88
48862;BME280;34681;49.188;-0.374;2023-06-22T09:05:13;101617.53;;;34.69;32.52
48862;BME280;34681;49.188;-0.374;2023-06-22T09:07:38;101611.91;;;34.18;32.88
48862;BME280;34681;49.188;-0.374;2023-06-22T09:10:05;101614.53;;;32.36;35.92
48862;BME280;34681;49.188;-0.374;2023-06-22T09:12:30;101612.63;;;31.17;36.95
48862;BME280;34681;49.188;-0.374;2023-06-22T09:14:58;101621.63;;;31.58;37.97
48862;BME280;34681;49.188;-0.374;2023-06-22T09:17:25;101621.84;;;31.08;37.26
48862;BME280;34681;49.188;-0.374;2023-06-22T09:19:50;101622.06;;;31.23;37.40
48862;BME280;34681;49.188;-0.374;2023-06-22T09:22:16;101624.72;;;30.91;37.18
48862;BME280;34681;49.188;-0.374;2023-06-22T09:24:41;101629.19;;;31.52;37.45
48862;BME280;34681;49.188;-0.374;2023-06-22T09:27:06;101632.03;;;30.36;39.12
48862;BME280;34681;49.188;-0.374;2023-06-22T09:29:32;101629.97;;;30.82;39.39
48862;BME280;34681;49.188;-0.374;2023-06-22T09:31:59;101636.50;;;31.04;37.96
48862;BME280;34681;49.188;-0.374;2023-06-22T09:34:25;101638.25;;;29.59;40.85
48862;BME280;34681;49.188;-0.374;2023-06-22T09:36:50;101636.72;;;28.65;42.44
48862;BME280;34681;49.188;-0.374;2023-06-22T09:39:17;101633.22;;;28.27;44.20
48862;BME280;34681;49.188;-0.374;2023-06-22T09:41:43;101637.56;;;28.53;43.26
48862;BME280;34681;49.188;-0.374;2023-06-22T09:44:08;101635.19;;;28.27;43.67
48862;BME280;34681;49.188;-0.374;2023-06-22T09:46:33;101640.94;;;27.79;44.95
48862;BME280;34681;49.188;-0.374;2023-06-22T09:48:59;101635.22;;;27.85;43.59
48862;BME280;34681;49.188;-0.374;2023-06-22T09:51:24;101651.06;;;28.21;43.53
48862;BME280;34681;49.188;-0.374;2023-06-22T09:53:50;101644.84;;;27.48;45.51
48862;BME280;34681;49.188;-0.374;2023-06-22T09:56:16;101640.53;;;26.72;47.22
48862;BME280;34681;49.188;-0.374;2023-06-22T09:58:42;101639.81;;;26.58;47.30
48862;BME280;34681;49.188;-0.374;2023-06-22T10:01:08;101645.69;;;26.00;48.87
48862;BME280;34681;49.188;-0.374;2023-06-22T10:03:33;101632.13;;;25.97;49.28
48862;BME280;34681;49.188;-0.374;2023-06-22T10:05:59;101643.72;;;26.07;48.81
48862;BME280;34681;49.188;-0.374;2023-06-22T10:08:24;101633.69;;;26.18;48.93
48862;BME280;34681;49.188;-0.374;2023-06-22T10:10:50;101639.56;;;26.41;49.01
48862;BME280;34681;49.188;-0.374;2023-06-22T10:13:15;101641.06;;;25.81;49.45
48862;BME280;34681;49.188;-0.374;2023-06-22T10:15:41;101622.19;;;26.26;49.53
48862;BME280;34681;49.188;-0.374;2023-06-22T10:18:07;101625.50;;;26.84;46.30
48862;BME280;34681;49.188;-0.374;2023-06-22T10:20:33;101630.06;;;26.36;46.58
48862;BME280;34681;49.188;-0.374;2023-06-22T10:22:58;101637.84;;;26.40;47.29
48862;BME280;34681;49.188;-0.374;2023-06-22T10:25:24;101627.09;;;26.05;47.91
48862;BME280;34681;49.188;-0.374;2023-06-22T10:27:50;101639.09;;;25.88;48.65
48862;BME280;34681;49.188;-0.374;2023-06-22T10:30:15;101629.19;;;25.85;48.64
48862;BME280;34681;49.188;-0.374;2023-06-22T10:32:42;101626.41;;;26.10;48.43
48862;BME280;34681;49.188;-0.374;2023-06-22T10:35:10;101633.81;;;26.73;48.48
48862;BME280;34681;49.188;-0.374;2023-06-22T10:37:38;101636.97;;;26.65;48.30
48862;BME280;34681;49.188;-0.374;2023-06-22T10:40:04;101643.06;;;26.05;49.88
48862;BME280;34681;49.188;-0.374;2023-06-22T10:42:30;101643.75;;;25.24;51.24
48862;BME280;34681;49.188;-0.374;2023-06-22T10:44:56;101634.03;;;25.27;50.56
48862;BME280;34681;49.188;-0.374;2023-06-22T10:47:21;101642.06;;;25.16;50.93
48862;BME280;34681;49.188;-0.374;2023-06-22T10:49:46;101637.94;;;25.19;51.66
48862;BME280;34681;49.188;-0.374;2023-06-22T10:52:11;101644.13;;;25.34;51.85
48862;BME280;34681;49.188;-0.374;2023-06-22T10:54:37;101643.25;;;26.10;48.84
48862;BME280;34681;49.188;-0.374;2023-06-22T10:57:03;101654.06;;;26.31;48.43
48862;BME280;34681;49.188;-0.374;2023-06-22T10:59:29;101656.31;;;25.53;50.04
48862;BME280;34681;49.188;-0.374;2023-06-22T11:01:58;101646.44;;;25.44;50.99
48862;BME280;34681;49.188;-0.374;2023-06-22T11:04:23;101651.13;;;25.95;49.82
48862;BME280;34681;49.188;-0.374;2023-06-22T11:06:49;101654.69;;;25.70;50.22
48862;BME280;34681;49.188;-0.374;2023-06-22T11:09:15;101649.84;;;25.08;52.71
48862;BME280;34681;49.188;-0.374;2023-06-22T11:11:47;101665.09;;;24.99;52.36
48862;BME280;34681;49.188;-0.374;2023-06-22T11:14:13;101652.78;;;25.26;53.70
48862;BME280;34681;49.188;-0.374;2023-06-22T11:16:38;101664.19;;;25.69;51.86
48862;BME280;34681;49.188;-0.374;2023-06-22T11:19:05;101657.31;;;26.03;51.16
48862;BME280;34681;49.188;-0.374;2023-06-22T11:21:30;101650.03;;;26.21;50.55
48862;BME280;34681;49.188;-0.374;2023-06-22T11:23:56;101654.63;;;25.90;51.77
48862;BME280;34681;49.188;-0.374;2023-06-22T11:26:22;101668.97;;;26.00;51.48
48862;BME280;34681;49.188;-0.374;2023-06-22T11:28:47;101660.50;;;25.31;52.69
48862;BME280;34681;49.188;-0.374;2023-06-22T11:31:14;101652.31;;;25.36;53.25
48862;BME280;34681;49.188;-0.374;2023-06-22T11:33:40;101673.56;;;25.50;54.02
48862;BME280;34681;49.188;-0.374;2023-06-22T11:36:05;101662.59;;;25.87;52.85
48862;BME280;34681;49.188;-0.374;2023-06-22T11:38:30;101660.50;;;26.39;51.99
48862;BME280;34681;49.188;-0.374;2023-06-22T11:40:58;101672.59;;;26.08;51.45
48862;BME280;34681;49.188;-0.374;2023-06-22T11:43:23;101673.34;;;25.52;52.57
48862;BME280;34681;49.188;-0.374;2023-06-22T11:45:49;101671.72;;;25.82;50.70
48862;BME280;34681;49.188;-0.374;2023-06-22T11:48:14;101670.25;;;26.29;48.95
48862;BME280;34681;49.188;-0.374;2023-06-22T11:50:39;101667.16;;;26.44;48.22
48862;BME280;34681;49.188;-0.374;2023-06-22T11:53:05;101675.06;;;26.22;48.83
48862;BME280;34681;49.188;-0.374;2023-06-22T11:55:30;101672.22;;;26.54;48.73
48862;BME280;34681;49.188;-0.374;2023-06-22T11:57:57;101668.72;;;26.33;48.72
48862;BME280;34681;49.188;-0.374;2023-06-22T12:00:28;101668.09;;;26.31;47.79
48862;BME280;34681;49.188;-0.374;2023-06-22T12:02:54;101667.03;;;25.63;47.45
48862;BME280;34681;49.188;-0.374;2023-06-22T12:05:20;101658.31;;;25.39;46.61
48862;BME280;34681;49.188;-0.374;2023-06-22T12:07:46;101655.00;;;25.56;49.85
48862;BME280;34681;49.188;-0.374;2023-06-22T12:10:11;101661.09;;;25.91;47.88
48862;BME280;34681;49.188;-0.374;2023-06-22T12:12:37;101662.88;;;26.35;47.97
48862;BME280;34681;49.188;-0.374;2023-06-22T12:15:02;101671.91;;;26.12;46.63
48862;BME280;34681;49.188;-0.374;2023-06-22T12:17:29;101677.22;;;26.20;47.26
48862;BME280;34681;49.188;-0.374;2023-06-22T12:19:55;101679.63;;;26.48;46.61
48862;BME280;34681;49.188;-0.374;2023-06-22T12:22:20;101674.97;;;26.36;46.61
48862;BME280;34681;49.188;-0.374;2023-06-22T12:24:46;101671.66;;;26.45;46.89
48862;BME280;34681;49.188;-0.374;2023-06-22T12:27:11;101676.31;;;26.58;46.17
48862;BME280;34681;49.188;-0.374;2023-06-22T12:29:36;101676.50;;;26.31;46.56
48862;BME280;34681;49.188;-0.374;2023-06-22T12:32:02;101674.66;;;25.87;48.07
48862;BME280;34681;49.188;-0.374;2023-06-22T12:34:27;101671.97;;;25.74;47.61
48862;BME280;34681;49.188;-0.374;2023-06-22T12:36:53;101687.53;;;25.57;49.04
48862;BME280;34681;49.188;-0.374;2023-06-22T12:39:20;101670.19;;;25.80;48.23
48862;BME280;34681;49.188;-0.374;2023-06-22T12:41:45;101673.72;;;26.31;48.64